TimeMST,TemperatureF,Dew PointF,Humidity,Sea Level PressureIn,VisibilityMPH,Wind Direction,Wind SpeedMPH,Gust SpeedMPH,PrecipitationIn,Events,Conditions,WindDirDegrees,DateUTC
1:50 AM,69,56,55,29.99,2,Calm,Calm,,,,,,2012-11-11 08:50:00
4:50 AM,66,58,67,29.99,2,Calm,Calm,,,,,,2012-11-11 11:50:00
5:42 AM,57.2,51.8,82,30.01,8.0,South,4.6,-,N/A,,Partly Cloudy,180,2012-11-11 12:42:00
6:47 AM,57.2,51.8,82,30.02,10.0,South,5.8,-,N/A,,Scattered Clouds,170,2012-11-11 13:47:00
7:50 AM,69,56,54,30.02,12,Calm,Calm,,,,,,2012-11-11 14:50:00
7:50 AM,64.4,55.4,73,30.09,10.0,Calm,Calm,-,N/A,,Scattered Clouds,0,2012-11-11 14:50:00
8:43 AM,75.2,57.2,53,30.03,10.0,NNE,16.1,-,N/A,,Partly Cloudy,30,2012-11-11 15:43:00
9:49 AM,77.0,53.6,44,30.06,10.0,NNE,17.3,-,N/A,,Partly Cloudy,30,2012-11-11 16:49:00
10:46 AM,78.8,55.4,44,30.10,12.0,North,16.1,-,N/A,,Partly Cloudy,360,2012-11-11 17:46:00
11:46 AM,77.0,53.6,44,30.03,15.0,North,15.0,-,N/A,,Partly Cloudy,350,2012-11-11 18:46:00
12:45 PM,78.8,55.4,44,30.01,15.0,North,20.7,-,N/A,,Scattered Clouds,360,2012-11-11 19:45:00
1:45 PM,77.0,53.6,44,30.02,15.0,NNE,19.6,-,N/A,,Partly Cloudy,30,2012-11-11 20:45:00
1:50 PM,80,58,36,29.99,19,NW,8.9,,,,,320,2012-11-11 20:50:00
2:47 PM,77.0,55.4,47,29.99,15.0,North,18.4,-,N/A,,Partly Cloudy,360,2012-11-11 21:47:00
3:40 PM,75.2,53.6,47,29.99,15.0,North,15.0,-,N/A,,Mostly Cloudy,10,2012-11-11 22:40:00
4:48 PM,75.2,51.8,44,30.12,10.0,North,11.5,-,N/A,,Mostly Cloudy,360,2012-11-11 23:48:00
4:50 PM,76,56,40,29.99,19,North,13.4,,,,Clear,0,2012-11-11 23:50:00
5:52 PM,71.6,53.6,53,30.03,10.0,NNE,13.8,-,N/A,,Mostly Cloudy,30,2012-11-12 00:52:00
6:41 PM,71.6,55.4,57,30.04,10.0,NNE,9.2,-,N/A,,Scattered Clouds,20,2012-11-12 01:41:00
7:40 PM,71.6,55.4,57,30.17,10.0,North,11.5,-,N/A,,Clear,10,2012-11-12 02:40:00
7:45 PM,72,57,50,30.02,2,North,15.7,,,,Clear,0,2012-11-12 02:45:00
8:46 PM,71.6,55.4,57,30.07,10.0,NNE,11.5,-,N/A,,Clear,30,2012-11-12 03:46:00
9:50 PM,69.8,55.4,60,30.07,10.0,NE,9.2,-,N/A,,Clear,40,2012-11-12 04:50:00
10:40 PM,69.8,55.4,60,30.19,10.0,NE,6.9,-,N/A,,Clear,40,2012-11-12 05:40:00
10:50 PM,71,57,52,30.06,2,North,6.7,,,,,0,2012-11-12 05:50:00